This is the latest recevied weather packets stored in our database for station/object IU1OPQ-3. If no packets are shown the sender has not sent any weather packets the latest 10 day(s).
| Time | Temp. | Humidity | Pressure | Rain* | Wind** | Luminosity | Snow |
|---|---|---|---|---|---|---|---|
| 1778267700 | 15° C | 71% | 1016.3 hPa | 0 mm | - | - | - |
| 1778266800 | 15.56° C | 71% | 1016 hPa | 0 mm | - | - | - |
| 1778265900 | 15.56° C | 71% | 1016.1 hPa | 0 mm | - | - | - |
| 1778265000 | 16.11° C | 72% | 1015.8 hPa | 0 mm | - | - | - |
| 1778264100 | 16.67° C | 71% | 1015.8 hPa | 0 mm | - | - | - |
| 1778263200 | 17.22° C | 70% | 1015.8 hPa | 0 mm | - | - | - |
| 1778262301 | 17.22° C | 69% | 1015.7 hPa | 0 mm | - | - | - |
| 1778261401 | 18.33° C | 67% | 1015.4 hPa | 0 mm | - | - | - |
| 1778260501 | 18.33° C | 64% | 1015.4 hPa | 0 mm | - | - | - |
| 1778259600 | 17.78° C | 61% | 1015.2 hPa | 0 mm | - | - | - |
| 1778258701 | 17.78° C | 61% | 1015.2 hPa | 0 mm | - | - | - |
| 1778257801 | 17.22° C | 63% | 1015.2 hPa | 0 mm | - | - | - |
| 1778256900 | 17.78° C | 63% | 1015.3 hPa | 0 mm | - | - | - |
| 1778256001 | 17.22° C | 66% | 1015.2 hPa | 0 mm | - | - | - |
| 1778255101 | 16.67° C | 70% | 1015.2 hPa | 0 mm | - | - | - |
| 1778254200 | 16.11° C | 74% | 1015.4 hPa | 0 mm | - | - | - |
| 1778253300 | 16.67° C | 74% | 1015.2 hPa | 0 mm | - | - | - |
| 1778252400 | 17.22° C | 69% | 1015.6 hPa | 0 mm | - | - | - |
| 1778251500 | 17.78° C | 66% | 1015.7 hPa | 0 mm | - | - | - |
| 1778250600 | 17.78° C | 67% | 1015.7 hPa | 0 mm | - | - | - |
| 1778249700 | 16.11° C | 71% | 1015.7 hPa | 0 mm | - | - | - |
| 1778248801 | 16.67° C | 67% | 1015.7 hPa | 0 mm | - | - | - |
| 1778247901 | 16.67° C | 71% | 1016 hPa | 0 mm | - | - | - |
| 1778247001 | 16.67° C | 73% | 1016 hPa | 0 mm | - | - | - |
| 1778246100 | 16.67° C | 69% | 1016.2 hPa | 0 mm | - | - | - |
* Rain latest hour (hover to see other rain measurements)
** Current wind speed in m/s (hover to see current wind gust speed)